Max Planck — ELZY8 — position and weather

sailwx.info

Track history (hours):
 
Tides and Currents Weather Stations Pressure Air Temp Water Temp Dewpoint Dewpoint Depression Visibility Wind Speed Wind Dir Waves Ship Positions

Max Planck

Last reported at 2015-May-04 00:33 UTC. Time now 2015-May-04 00:57 UTC.
Position N 31°04' E 122°06'.

Length 99.9 m; beam 16.2 m; draft 6.8 m.

Type: Tanker. MMSI: 636091773.

Date/timePositionNaut miles runAvg speedWind from/ knotsBaromVisibWave heightAir tempDewpointWater temp
2015-May-04 00:33N 31°04' E 122°06'1010.0
2015-May-03 23:32N 31°03' E 122°17'  
2015-Apr-30 02:20N 34°54' E 139°23'911.3
2015-Apr-30 01:33N 34°59' E 139°31'1212.0
2015-Apr-30 00:33N 35°06' E 139°43'1111.5
2015-Apr-29 23:33N 35°17' E 139°45'10 9.9
2015-Apr-29 22:33N 35°27' E 139°47'4 4.3
2015-Apr-29 21:33N 35°31' E 139°46'2 0.1
2015-Apr-29 04:33N 35°30' E 139°44'5 4.7
2015-Apr-29 03:33N 35°26' E 139°46'8 7.9
2015-Apr-29 02:33N 35°18' E 139°45'8 8.2
2015-Apr-29 01:34N 35°10' E 139°46'7 7.0
2015-Apr-29 00:33N 35°03' E 139°43'7 7.2
2015-Apr-28 23:33N 34°56' E 139°40'7 7.3
2015-Apr-28 22:33N 34°50' E 139°37'7 7.3
2015-Apr-28 21:33N 34°43' E 139°33'21 7.1
2015-Apr-28 18:33N 34°33' E 139°10'8 7.8
2015-Apr-28 17:33N 34°30' E 139°02'  
2015-Apr-26 11:18N 34°04' E 130°47'5611.5
2015-Apr-26 06:22N 34°46' E 130°02'  
Track history (hours):
 
Tides and Currents Weather Stations Pressure Air Temp Water Temp Dewpoint Dewpoint Depression Visibility Wind Speed Wind Dir Waves Ship Positions

Max Planck

Last reported at 2015-May-04 00:33 UTC. Time now 2015-May-04 00:57 UTC.
Position N 31°04' E 122°06'.

Length 99.9 m; beam 16.2 m; draft 6.8 m.

Type: Tanker. MMSI: 636091773.

Date/timePositionNaut miles runAvg speedWind from/ knotsBaromVisibWave heightAir tempDewpointWater temp
2015-May-04 00:33N 31°04' E 122°06'1010.0
2015-May-03 23:32N 31°03' E 122°17'  
2015-Apr-30 02:20N 34°54' E 139°23'911.3
2015-Apr-30 01:33N 34°59' E 139°31'1212.0
2015-Apr-30 00:33N 35°06' E 139°43'1111.5
2015-Apr-29 23:33N 35°17' E 139°45'10 9.9
2015-Apr-29 22:33N 35°27' E 139°47'4 4.3
2015-Apr-29 21:33N 35°31' E 139°46'2 0.1
2015-Apr-29 04:33N 35°30' E 139°44'5 4.7
2015-Apr-29 03:33N 35°26' E 139°46'8 7.9
2015-Apr-29 02:33N 35°18' E 139°45'8 8.2
2015-Apr-29 01:34N 35°10' E 139°46'7 7.0
2015-Apr-29 00:33N 35°03' E 139°43'7 7.2
2015-Apr-28 23:33N 34°56' E 139°40'7 7.3
2015-Apr-28 22:33N 34°50' E 139°37'7 7.3
2015-Apr-28 21:33N 34°43' E 139°33'21 7.1
2015-Apr-28 18:33N 34°33' E 139°10'8 7.8
2015-Apr-28 17:33N 34°30' E 139°02'  
2015-Apr-26 11:18N 34°04' E 130°47'5611.5
2015-Apr-26 06:22N 34°46' E 130°02'  

Dump ship's entire track history